Airport View

Enter AWOS ICAO identifier for current METAR.

ex. KFNL

KMRB 191853Z 16005KT 10SM FEW034 SCT060 29/21 A2974 RMK AO2 SLP066 T02890206

19 Jun 2019 19:50

Frequency: 119.925

Phone: 304-264-0988,

Other Area AWOS: KOKV - KHGR - KJYO - KFDK

TAF KMRB 191737Z 1918/2018 04004KT P6SM SCT020 BKN050 FM191900 15004KT P6SM -SHRA VCTS SCT025 BKN080CB FM192300 19004KT P6SM -SHRA SCT030 BKN130 FM200000 VRB03KT P6SM SCT025 BKN140 FM200600 VRB03KT 4SM BR SCT020 BKN150